EmailTwitter


Observations de surface / Canada / CYYZ (71624)

Régions: Québec | Canada | États-Unis | Europe | France | UK | Ailleurs
Station
Affichage
Infos & localisation pour CYYZ (71624) | Aide pour décoder les METARs

Observations prises le 2017-10-23 à 00H00 UTC à TORONTO A, ON (CYYZ)

Etat du ciel: couvert.

Température: 17.0 Celsius

Point de rosée: 11.0 Celsius

Humidité relative: 68%

Vents: Est-sud-est à 7 km/h ou 4 noeuds.

Pression au niveau moyen de la mer: 102.09 kilopascals.

Calage altimétrique: 102.07 kilopascals ou 30.14 pouces de mercure.

Visibilité horizontale: 15.00 milles terrestres ou 24.00 kilomètres.

Hauteur du plafond: 6706 mètres ( 22000 pieds ).

Observation METAR:

CYYZ 230000Z 11004KT 15SM FEW180 BKN220 OVC240 17/11 A3014 RMK AC1CC5CI2 SLP209

DENSITY ALT 700FT=